Time,TemperatureF,DewpointF,PressureIn,WindDirection,WindDirectionDegrees,WindSpeedMPH,WindSpeedGustMPH,Humidity,HourlyPrecipIn,Conditions,Clouds,dailyrainin,SolarRadiationWatts/m^2,SoftwareType,DateUTC
2013-06-01 00:01:00,58.9,56.3,29.93,NNE,23,1.0,-999.0,91,0.00,,,0.03,0,Wunderground v.1.15,2013-05-31 14:01:00,
2013-06-01 00:06:00,58.9,56.3,29.93,NNE,23,1.0,-999.0,91,0.00,,,0.03,0,Wunderground v.1.15,2013-05-31 14:06:00,
2013-06-01 00:11:00,58.9,56.3,29.93,NNE,23,1.0,-999.0,91,0.00,,,0.03,0,Wunderground v.1.15,2013-05-31 14:11:00,
2013-06-01 00:16:00,58.9,56.3,29.93,NNE,23,1.0,-999.0,91,0.00,,,0.03,0,Wunderground v.1.15,2013-05-31 14:16:00,
2013-06-01 00:21:00,58.9,56.3,29.93,NNE,23,1.0,-999.0,91,0.00,,,0.03,0,Wunderground v.1.15,2013-05-31 14:21:00,
2013-06-01 00:26:00,58.9,56.3,29.93,NNE,23,1.0,-999.0,91,0.00,,,0.03,0,Wunderground v.1.15,2013-05-31 14:26:00,
2013-06-01 00:31:00,58.9,56.3,29.93,NNE,23,1.0,-999.0,91,0.00,,,0.03,0,Wunderground v.1.15,2013-05-31 14:31:00,
2013-06-01 00:36:00,58.9,56.3,29.93,NNE,23,1.0,-999.0,91,0.00,,,0.03,0,Wunderground v.1.15,2013-05-31 14:36:00,
2013-06-01 00:41:00,58.9,56.3,29.93,NNE,23,1.0,-999.0,91,0.00,,,0.03,0,Wunderground v.1.15,2013-05-31 14:41:00,
2013-06-01 00:46:00,58.0,55.4,29.94,NNE,23,0.0,-999.0,91,0.00,,,0.03,0,Wunderground v.1.15,2013-05-31 14:46:00,
2013-06-01 00:51:00,58.0,55.4,29.94,NNE,23,0.0,-999.0,91,0.00,,,0.03,0,Wunderground v.1.15,2013-05-31 14:51:00,
2013-06-01 00:56:00,58.0,55.4,29.94,NNE,23,0.0,-999.0,91,0.00,,,0.03,0,Wunderground v.1.15,2013-05-31 14:56:00,
2013-06-01 01:01:00,58.0,55.4,29.94,NNE,23,0.0,-999.0,91,0.00,,,0.03,0,Wunderground v.1.15,2013-05-31 15:01:00,
2013-06-01 01:06:00,58.0,55.4,29.94,NNE,23,0.0,-999.0,91,0.00,,,0.03,0,Wunderground v.1.15,2013-05-31 15:06:00,
2013-06-01 01:11:00,58.0,55.4,29.94,NNE,23,0.0,-999.0,91,0.00,,,0.03,0,Wunderground v.1.15,2013-05-31 15:11:00,
2013-06-01 01:16:00,57.3,55.0,29.94,North,0,1.0,-999.0,92,0.00,,,0.03,0,Wunderground v.1.15,2013-05-31 15:16:00,
2013-06-01 01:21:00,57.3,55.0,29.94,North,0,1.0,-999.0,92,0.00,,,0.03,0,Wunderground v.1.15,2013-05-31 15:21:00,
2013-06-01 01:26:00,57.3,55.0,29.94,North,0,1.0,-999.0,92,0.00,,,0.03,0,Wunderground v.1.15,2013-05-31 15:26:00,
2013-06-01 01:31:00,57.3,55.0,29.94,North,0,1.0,-999.0,92,0.00,,,0.03,0,Wunderground v.1.15,2013-05-31 15:31:00,
2013-06-01 01:36:00,57.3,55.0,29.94,North,0,1.0,-999.0,92,0.00,,,0.03,0,Wunderground v.1.15,2013-05-31 15:36:00,
2013-06-01 01:41:00,57.3,55.0,29.94,North,0,1.0,-999.0,92,0.00,,,0.03,0,Wunderground v.1.15,2013-05-31 15:41:00,
2013-06-01 01:46:00,58.0,55.4,29.94,NNE,23,3.0,-999.0,91,0.00,,,0.03,0,Wunderground v.1.15,2013-05-31 15:46:00,
2013-06-01 01:51:00,58.0,55.4,29.94,NNE,23,3.0,-999.0,91,0.00,,,0.03,0,Wunderground v.1.15,2013-05-31 15:51:00,
2013-06-01 01:56:00,58.0,55.4,29.94,NNE,23,3.0,-999.0,91,0.00,,,0.03,0,Wunderground v.1.15,2013-05-31 15:56:00,
2013-06-01 02:01:00,58.0,55.4,29.94,NNE,23,3.0,-999.0,91,0.00,,,0.03,0,Wunderground v.1.15,2013-05-31 16:01:00,
2013-06-01 02:06:00,58.0,55.4,29.94,NNE,23,3.0,-999.0,91,0.00,,,0.03,0,Wunderground v.1.15,2013-05-31 16:06:00,
2013-06-01 02:11:00,58.0,55.4,29.94,NNE,23,3.0,-999.0,91,0.00,,,0.03,0,Wunderground v.1.15,2013-05-31 16:11:00,
2013-06-01 02:16:00,58.1,55.2,29.92,North,0,2.0,-999.0,90,0.00,,,0.03,0,Wunderground v.1.15,2013-05-31 16:16:00,
2013-06-01 02:21:00,58.1,55.2,29.92,North,0,2.0,-999.0,90,0.00,,,0.03,0,Wunderground v.1.15,2013-05-31 16:21:00,
2013-06-01 02:26:00,58.1,55.2,29.92,North,0,2.0,-999.0,90,0.00,,,0.03,0,Wunderground v.1.15,2013-05-31 16:26:00,
2013-06-01 02:31:00,58.1,55.2,29.92,North,0,2.0,-999.0,90,0.00,,,0.03,0,Wunderground v.1.15,2013-05-31 16:31:00,
2013-06-01 02:36:00,58.1,55.2,29.92,North,0,2.0,-999.0,90,0.00,,,0.03,0,Wunderground v.1.15,2013-05-31 16:36:00,
2013-06-01 02:41:00,58.1,55.2,29.92,North,0,2.0,-999.0,90,0.00,,,0.03,0,Wunderground v.1.15,2013-05-31 16:41:00,
2013-06-01 02:46:00,58.0,54.8,29.91,NNE,23,2.0,-999.0,89,0.00,,,0.03,0,Wunderground v.1.15,2013-05-31 16:46:00,
2013-06-01 02:51:00,58.0,54.8,29.91,NNE,23,2.0,-999.0,89,0.00,,,0.03,0,Wunderground v.1.15,2013-05-31 16:51:00,
2013-06-01 02:56:00,58.0,54.8,29.91,NNE,23,2.0,-999.0,89,0.00,,,0.03,0,Wunderground v.1.15,2013-05-31 16:56:00,
2013-06-01 03:01:00,58.0,54.8,29.91,NNE,23,2.0,-999.0,89,0.00,,,0.03,0,Wunderground v.1.15,2013-05-31 17:01:00,
2013-06-01 03:06:00,58.0,54.8,29.91,NNE,23,2.0,-999.0,89,0.00,,,0.03,0,Wunderground v.1.15,2013-05-31 17:06:00,
2013-06-01 03:11:00,58.0,54.8,29.91,NNE,23,2.0,-999.0,89,0.00,,,0.03,0,Wunderground v.1.15,2013-05-31 17:11:00,
2013-06-01 03:16:00,57.9,54.7,29.90,NNE,23,2.0,-999.0,89,0.00,,,0.03,0,Wunderground v.1.15,2013-05-31 17:16:00,
2013-06-01 03:21:00,57.9,54.7,29.90,NNE,23,2.0,-999.0,89,0.00,,,0.03,0,Wunderground v.1.15,2013-05-31 17:21:00,
2013-06-01 03:26:00,57.9,54.7,29.90,NNE,23,2.0,-999.0,89,0.00,,,0.03,0,Wunderground v.1.15,2013-05-31 17:26:00,
2013-06-01 03:31:00,57.9,54.7,29.90,NNE,23,2.0,-999.0,89,0.00,,,0.03,0,Wunderground v.1.15,2013-05-31 17:31:00,
2013-06-01 03:36:00,57.9,54.7,29.90,NNE,23,2.0,-999.0,89,0.00,,,0.03,0,Wunderground v.1.15,2013-05-31 17:36:00,
2013-06-01 03:41:00,57.9,54.7,29.90,NNE,23,2.0,-999.0,89,0.00,,,0.03,0,Wunderground v.1.15,2013-05-31 17:41:00,
2013-06-01 03:46:00,56.9,54.0,29.89,NNE,23,2.0,-999.0,90,0.00,,,0.03,0,Wunderground v.1.15,2013-05-31 17:46:00,
2013-06-01 03:51:00,56.9,54.0,29.89,NNE,23,2.0,-999.0,90,0.00,,,0.03,0,Wunderground v.1.15,2013-05-31 17:51:00,
2013-06-01 03:56:00,56.9,54.0,29.89,NNE,23,2.0,-999.0,90,0.00,,,0.03,0,Wunderground v.1.15,2013-05-31 17:56:00,
2013-06-01 04:01:00,56.9,54.0,29.89,NNE,23,2.0,-999.0,90,0.00,,,0.03,0,Wunderground v.1.15,2013-05-31 18:01:00,
2013-06-01 04:06:00,56.9,54.0,29.89,NNE,23,2.0,-999.0,90,0.00,,,0.03,0,Wunderground v.1.15,2013-05-31 18:06:00,
2013-06-01 04:11:00,56.9,54.0,29.89,NNE,23,2.0,-999.0,90,0.00,,,0.03,0,Wunderground v.1.15,2013-05-31 18:11:00,
2013-06-01 04:16:00,55.8,53.5,29.89,NNE,23,2.0,-999.0,92,0.00,,,0.03,0,Wunderground v.1.15,2013-05-31 18:16:00,
2013-06-01 04:21:00,55.8,53.5,29.89,NNE,23,2.0,-999.0,92,0.00,,,0.03,0,Wunderground v.1.15,2013-05-31 18:21:00,
2013-06-01 04:26:00,55.8,53.5,29.89,NNE,23,2.0,-999.0,92,0.00,,,0.03,0,Wunderground v.1.15,2013-05-31 18:26:00,
2013-06-01 04:31:00,55.8,53.5,29.89,NNE,23,2.0,-999.0,92,0.00,,,0.03,0,Wunderground v.1.15,2013-05-31 18:31:00,
2013-06-01 04:36:00,55.8,53.5,29.89,NNE,23,2.0,-999.0,92,0.00,,,0.03,0,Wunderground v.1.15,2013-05-31 18:36:00,
2013-06-01 04:41:00,55.8,53.5,29.89,NNE,23,2.0,-999.0,92,0.00,,,0.03,0,Wunderground v.1.15,2013-05-31 18:41:00,
2013-06-01 04:46:00,55.4,53.4,29.89,NNE,23,2.0,-999.0,93,0.00,,,0.03,0,Wunderground v.1.15,2013-05-31 18:46:00,
2013-06-01 04:51:00,55.4,53.4,29.89,NNE,23,2.0,-999.0,93,0.00,,,0.03,0,Wunderground v.1.15,2013-05-31 18:51:00,
2013-06-01 04:56:00,55.4,53.4,29.89,NNE,23,2.0,-999.0,93,0.00,,,0.03,0,Wunderground v.1.15,2013-05-31 18:56:00,
2013-06-01 05:01:00,55.4,53.4,29.89,NNE,23,2.0,-999.0,93,0.00,,,0.03,0,Wunderground v.1.15,2013-05-31 19:01:00,
2013-06-01 05:06:00,55.4,53.4,29.89,NNE,23,2.0,-999.0,93,0.00,,,0.03,0,Wunderground v.1.15,2013-05-31 19:06:00,
2013-06-01 05:11:00,55.4,53.4,29.89,NNE,23,2.0,-999.0,93,0.00,,,0.03,0,Wunderground v.1.15,2013-05-31 19:11:00,
2013-06-01 05:16:00,55.7,53.7,29.88,NNE,23,2.0,-999.0,93,0.00,,,0.03,0,Wunderground v.1.15,2013-05-31 19:16:00,
2013-06-01 05:21:00,55.7,53.7,29.88,NNE,23,2.0,-999.0,93,0.00,,,0.03,0,Wunderground v.1.15,2013-05-31 19:21:00,
2013-06-01 05:26:00,55.7,53.7,29.88,NNE,23,2.0,-999.0,93,0.00,,,0.03,0,Wunderground v.1.15,2013-05-31 19:26:00,
2013-06-01 05:31:00,55.7,53.7,29.88,NNE,23,2.0,-999.0,93,0.00,,,0.03,0,Wunderground v.1.15,2013-05-31 19:31:00,
2013-06-01 05:36:00,55.7,53.7,29.88,NNE,23,2.0,-999.0,93,0.00,,,0.03,0,Wunderground v.1.15,2013-05-31 19:36:00,
2013-06-01 05:41:00,55.7,53.7,29.88,NNE,23,2.0,-999.0,93,0.00,,,0.03,0,Wunderground v.1.15,2013-05-31 19:41:00,
2013-06-01 05:46:00,55.9,53.6,29.89,North,0,1.0,-999.0,92,0.00,,,0.03,0,Wunderground v.1.15,2013-05-31 19:46:00,
2013-06-01 05:51:00,55.9,53.6,29.89,North,0,1.0,-999.0,92,0.00,,,0.03,0,Wunderground v.1.15,2013-05-31 19:51:00,
2013-06-01 05:56:00,55.9,53.6,29.89,North,0,1.0,-999.0,92,0.00,,,0.03,0,Wunderground v.1.15,2013-05-31 19:56:00,
2013-06-01 06:01:00,55.9,53.6,29.89,North,0,1.0,-999.0,92,0.00,,,0.03,0,Wunderground v.1.15,2013-05-31 20:01:00,
2013-06-01 06:06:00,55.9,53.6,29.89,North,0,1.0,-999.0,92,0.00,,,0.03,0,Wunderground v.1.15,2013-05-31 20:06:00,
2013-06-01 06:11:00,55.9,53.6,29.89,North,0,1.0,-999.0,92,0.00,,,0.03,0,Wunderground v.1.15,2013-05-31 20:11:00,
2013-06-01 06:16:00,55.6,53.0,29.90,North,0,2.0,-999.0,91,0.00,,,0.03,0,Wunderground v.1.15,2013-05-31 20:16:00,
2013-06-01 06:21:00,55.6,53.0,29.90,North,0,2.0,-999.0,91,0.00,,,0.03,0,Wunderground v.1.15,2013-05-31 20:21:00,
2013-06-01 06:26:00,55.6,53.0,29.90,North,0,2.0,-999.0,91,0.00,,,0.03,0,Wunderground v.1.15,2013-05-31 20:26:00,
2013-06-01 06:31:00,55.6,53.0,29.90,North,0,2.0,-999.0,91,0.00,,,0.03,0,Wunderground v.1.15,2013-05-31 20:31:00,
2013-06-01 06:36:00,55.6,53.0,29.90,North,0,2.0,-999.0,91,0.00,,,0.03,0,Wunderground v.1.15,2013-05-31 20:36:00,
2013-06-01 06:41:00,55.6,53.0,29.90,North,0,2.0,-999.0,91,0.00,,,0.03,0,Wunderground v.1.15,2013-05-31 20:41:00,
2013-06-01 06:46:00,55.7,52.8,29.90,NNE,23,1.0,-999.0,90,0.00,,,0.03,2,Wunderground v.1.15,2013-05-31 20:46:00,
2013-06-01 06:51:00,55.7,52.8,29.90,NNE,23,1.0,-999.0,90,0.00,,,0.03,2,Wunderground v.1.15,2013-05-31 20:51:00,
2013-06-01 06:56:00,55.7,52.8,29.90,NNE,23,1.0,-999.0,90,0.00,,,0.03,2,Wunderground v.1.15,2013-05-31 20:56:00,
2013-06-01 07:01:00,55.7,52.8,29.90,NNE,23,1.0,-999.0,90,0.00,,,0.03,2,Wunderground v.1.15,2013-05-31 21:01:00,
2013-06-01 07:06:00,55.7,52.8,29.90,NNE,23,1.0,-999.0,90,0.00,,,0.03,2,Wunderground v.1.15,2013-05-31 21:06:00,
2013-06-01 07:11:00,55.7,52.8,29.90,NNE,23,1.0,-999.0,90,0.00,,,0.03,2,Wunderground v.1.15,2013-05-31 21:11:00,
2013-06-01 07:16:00,55.6,52.4,29.91,NNE,23,1.0,-999.0,89,0.00,,,0.03,23,Wunderground v.1.15,2013-05-31 21:16:00,
2013-06-01 07:21:00,55.6,52.4,29.91,NNE,23,1.0,-999.0,89,0.00,,,0.03,23,Wunderground v.1.15,2013-05-31 21:21:00,
2013-06-01 07:26:00,55.6,52.4,29.91,NNE,23,1.0,-999.0,89,0.00,,,0.03,23,Wunderground v.1.15,2013-05-31 21:26:00,
2013-06-01 07:31:00,55.6,52.4,29.91,NNE,23,1.0,-999.0,89,0.00,,,0.03,23,Wunderground v.1.15,2013-05-31 21:31:00,
2013-06-01 07:36:00,55.6,52.4,29.91,NNE,23,1.0,-999.0,89,0.00,,,0.03,23,Wunderground v.1.15,2013-05-31 21:36:00,
2013-06-01 07:41:00,55.6,52.4,29.91,NNE,23,1.0,-999.0,89,0.00,,,0.03,23,Wunderground v.1.15,2013-05-31 21:41:00,
2013-06-01 07:46:00,55.7,52.2,29.91,NNW,338,3.0,-999.0,88,0.00,,,0.03,61,Wunderground v.1.15,2013-05-31 21:46:00,
2013-06-01 07:51:00,55.7,52.2,29.91,NNW,338,3.0,-999.0,88,0.00,,,0.03,61,Wunderground v.1.15,2013-05-31 21:51:00,
2013-06-01 07:56:00,55.7,52.2,29.91,NNW,338,3.0,-999.0,88,0.00,,,0.03,61,Wunderground v.1.15,2013-05-31 21:56:00,
2013-06-01 08:01:00,55.7,52.2,29.91,NNW,338,3.0,-999.0,88,0.00,,,0.03,61,Wunderground v.1.15,2013-05-31 22:01:00,
2013-06-01 08:06:00,55.7,52.2,29.91,NNW,338,3.0,-999.0,88,0.00,,,0.03,61,Wunderground v.1.15,2013-05-31 22:06:00,
2013-06-01 08:11:00,55.7,52.2,29.91,NNW,338,3.0,-999.0,88,0.00,,,0.03,61,Wunderground v.1.15,2013-05-31 22:11:00,
2013-06-01 08:16:00,57.0,51.9,29.90,North,0,3.0,-999.0,83,0.00,,,0.03,99,Wunderground v.1.15,2013-05-31 22:16:00,
2013-06-01 08:21:00,57.0,51.9,29.90,North,0,3.0,-999.0,83,0.00,,,0.03,99,Wunderground v.1.15,2013-05-31 22:21:00,
2013-06-01 08:26:00,57.0,51.9,29.90,North,0,3.0,-999.0,83,0.00,,,0.03,99,Wunderground v.1.15,2013-05-31 22:26:00,
2013-06-01 08:31:00,57.0,51.9,29.90,North,0,3.0,-999.0,83,0.00,,,0.03,99,Wunderground v.1.15,2013-05-31 22:31:00,
2013-06-01 08:36:00,57.0,51.9,29.90,North,0,3.0,-999.0,83,0.00,,,0.03,99,Wunderground v.1.15,2013-05-31 22:36:00,
2013-06-01 08:41:00,57.0,51.9,29.90,North,0,3.0,-999.0,83,0.00,,,0.03,99,Wunderground v.1.15,2013-05-31 22:41:00,
2013-06-01 08:46:00,58.9,52.4,29.89,North,0,3.0,-999.0,79,0.00,,,0.03,156,Wunderground v.1.15,2013-05-31 22:46:00,
2013-06-01 08:51:00,58.9,52.4,29.89,North,0,3.0,-999.0,79,0.00,,,0.03,156,Wunderground v.1.15,2013-05-31 22:51:00,
2013-06-01 08:56:00,58.9,52.4,29.89,North,0,3.0,-999.0,79,0.00,,,0.03,156,Wunderground v.1.15,2013-05-31 22:56:00,
2013-06-01 09:01:00,58.9,52.4,29.89,North,0,3.0,-999.0,79,0.00,,,0.03,156,Wunderground v.1.15,2013-05-31 23:01:00,
2013-06-01 09:06:00,58.9,52.4,29.89,North,0,3.0,-999.0,79,0.00,,,0.03,156,Wunderground v.1.15,2013-05-31 23:06:00,
2013-06-01 09:11:00,58.9,52.4,29.89,North,0,3.0,-999.0,79,0.00,,,0.03,156,Wunderground v.1.15,2013-05-31 23:11:00,
2013-06-01 09:16:00,60.6,53.7,29.87,NNE,23,2.0,-999.0,78,0.00,,,0.03,205,Wunderground v.1.15,2013-05-31 23:16:00,
2013-06-01 09:21:00,60.6,53.7,29.87,NNE,23,2.0,-999.0,78,0.00,,,0.03,205,Wunderground v.1.15,2013-05-31 23:21:00,
2013-06-01 09:24:00,61.2,53.9,29.88,NNE,32,2.0,3.0,77,0.00,,,0.00,202,Wunderground v.1.15,2013-05-31 23:24:00,
2013-06-01 09:26:00,60.6,53.7,29.87,NNE,23,2.0,-999.0,78,0.00,,,0.03,205,Wunderground v.1.15,2013-05-31 23:26:00,
2013-06-01 09:29:00,61.0,54.1,29.87,NNE,26,3.0,3.0,78,0.00,,,0.00,204,Wunderground v.1.15,2013-05-31 23:29:00,
2013-06-01 09:31:00,60.6,53.7,29.87,NNE,23,2.0,-999.0,78,0.00,,,0.03,205,Wunderground v.1.15,2013-05-31 23:31:00,
2013-06-01 09:36:00,60.6,53.7,29.87,NNE,23,2.0,-999.0,78,0.00,,,0.03,205,Wunderground v.1.15,2013-05-31 23:36:00,
2013-06-01 09:39:00,61.7,54.4,29.87,North,11,3.0,5.0,77,0.00,,,0.00,250,Wunderground v.1.15,2013-05-31 23:39:00,
2013-06-01 09:41:00,60.6,53.7,29.87,NNE,23,2.0,-999.0,78,0.00,,,0.03,205,Wunderground v.1.15,2013-05-31 23:41:00,
2013-06-01 09:44:00,61.9,54.2,29.87,NNE,17,3.0,3.0,76,0.00,,,0.00,218,Wunderground v.1.15,2013-05-31 23:44:00,
2013-06-01 09:46:00,61.6,54.7,29.87,NNE,23,3.0,-999.0,78,0.00,,,0.03,232,Wunderground v.1.15,2013-05-31 23:46:00,
2013-06-01 09:49:00,61.7,54.4,29.87,NNW,333,3.0,6.0,77,0.00,,,0.00,227,Wunderground v.1.15,2013-05-31 23:49:00,
2013-06-01 09:51:00,61.6,54.7,29.87,NNE,23,3.0,-999.0,78,0.00,,,0.03,232,Wunderground v.1.15,2013-05-31 23:51:00,
2013-06-01 09:56:00,61.6,54.7,29.87,NNE,23,3.0,-999.0,78,0.00,,,0.03,232,Wunderground v.1.15,2013-05-31 23:56:00,
2013-06-01 09:59:00,61.7,54.8,29.87,NNE,15,3.0,4.0,78,0.00,,,0.00,250,Wunderground v.1.15,2013-05-31 23:59:00,
2013-06-01 10:01:00,61.6,54.7,29.87,NNE,23,3.0,-999.0,78,0.00,,,0.03,232,Wunderground v.1.15,2013-06-01 00:01:00,
2013-06-01 10:04:00,62.1,54.8,29.87,NNE,12,3.0,3.0,77,0.00,,,0.00,258,Wunderground v.1.15,2013-06-01 00:04:00,
2013-06-01 10:06:00,61.6,54.7,29.87,NNE,23,3.0,-999.0,78,0.00,,,0.03,232,Wunderground v.1.15,2013-06-01 00:06:00,
2013-06-01 10:09:00,62.4,54.7,29.87,NNE,21,3.0,3.0,76,0.00,,,0.00,232,Wunderground v.1.15,2013-06-01 00:09:00,
2013-06-01 10:11:00,61.6,54.7,29.87,NNE,23,3.0,-999.0,78,0.00,,,0.03,232,Wunderground v.1.15,2013-06-01 00:11:00,
2013-06-01 10:16:00,62.7,54.7,29.87,NNE,23,2.0,-999.0,75,0.00,,,0.03,238,Wunderground v.1.15,2013-06-01 00:16:00,
2013-06-01 10:19:00,62.9,55.2,29.87,NNE,15,2.0,4.0,76,0.00,,,0.00,227,Wunderground v.1.15,2013-06-01 00:19:00,
2013-06-01 10:21:00,62.7,54.7,29.87,NNE,23,2.0,-999.0,75,0.00,,,0.03,238,Wunderground v.1.15,2013-06-01 00:21:00,
2013-06-01 10:24:00,63.3,55.6,29.87,North,360,2.0,3.0,76,0.00,,,0.00,236,Wunderground v.1.15,2013-06-01 00:24:00,
2013-06-01 10:26:00,62.7,54.7,29.87,NNE,23,2.0,-999.0,75,0.00,,,0.03,238,Wunderground v.1.15,2013-06-01 00:26:00,
2013-06-01 10:31:00,62.7,54.7,29.87,NNE,23,2.0,-999.0,75,0.00,,,0.03,238,Wunderground v.1.15,2013-06-01 00:31:00,
2013-06-01 10:34:00,64.0,54.8,29.86,NNW,342,2.0,4.0,72,0.00,,,0.00,227,Wunderground v.1.15,2013-06-01 00:34:00,
2013-06-01 10:36:00,62.7,54.7,29.87,NNE,23,2.0,-999.0,75,0.00,,,0.03,238,Wunderground v.1.15,2013-06-01 00:36:00,
2013-06-01 10:41:00,62.7,54.7,29.87,NNE,23,2.0,-999.0,75,0.00,,,0.03,238,Wunderground v.1.15,2013-06-01 00:41:00,
2013-06-01 10:44:00,64.9,54.9,29.86,WNW,296,3.0,9.0,70,0.00,,,0.00,227,Wunderground v.1.15,2013-06-01 00:44:00,
2013-06-01 10:46:00,64.6,54.2,29.85,NW,315,4.0,-999.0,69,0.00,,,0.03,243,Wunderground v.1.15,2013-06-01 00:46:00,
2013-06-01 10:51:00,64.6,54.2,29.85,NW,315,4.0,-999.0,69,0.00,,,0.03,243,Wunderground v.1.15,2013-06-01 00:51:00,
2013-06-01 10:54:00,64.9,54.5,29.85,North,360,6.0,6.0,69,0.00,,,0.00,251,Wunderground v.1.15,2013-06-01 00:54:00,
2013-06-01 10:56:00,64.6,54.2,29.85,NW,315,4.0,-999.0,69,0.00,,,0.03,243,Wunderground v.1.15,2013-06-01 00:56:00,
2013-06-01 11:01:00,64.6,54.2,29.85,NW,315,4.0,-999.0,69,0.00,,,0.03,243,Wunderground v.1.15,2013-06-01 01:01:00,
2013-06-01 11:04:00,65.8,54.5,29.84,NW,311,5.0,5.0,67,0.00,,,0.00,311,Wunderground v.1.15,2013-06-01 01:04:00,
2013-06-01 11:06:00,64.6,54.2,29.85,NW,315,4.0,-999.0,69,0.00,,,0.03,243,Wunderground v.1.15,2013-06-01 01:06:00,
2013-06-01 11:11:00,64.6,54.2,29.85,NW,315,4.0,-999.0,69,0.00,,,0.03,243,Wunderground v.1.15,2013-06-01 01:11:00,
2013-06-01 11:14:00,66.2,54.9,29.83,NW,321,6.0,6.0,67,0.00,,,0.00,287,Wunderground v.1.15,2013-06-01 01:14:00,
2013-06-01 11:16:00,66.1,54.8,29.83,NW,315,6.0,-999.0,67,0.00,,,0.03,308,Wunderground v.1.15,2013-06-01 01:16:00,
2013-06-01 11:21:00,66.1,54.8,29.83,NW,315,6.0,-999.0,67,0.00,,,0.03,308,Wunderground v.1.15,2013-06-01 01:21:00,
2013-06-01 11:24:00,66.3,55.4,29.83,West,271,6.0,8.0,68,0.00,,,0.00,320,Wunderground v.1.15,2013-06-01 01:24:00,
2013-06-01 11:26:00,66.1,54.8,29.83,NW,315,6.0,-999.0,67,0.00,,,0.03,308,Wunderground v.1.15,2013-06-01 01:26:00,
2013-06-01 11:29:00,66.7,55.4,29.83,NW,323,6.0,8.0,67,0.00,,,0.00,301,Wunderground v.1.15,2013-06-01 01:29:00,
2013-06-01 11:31:00,66.1,54.8,29.83,NW,315,6.0,-999.0,67,0.00,,,0.03,308,Wunderground v.1.15,2013-06-01 01:31:00,
2013-06-01 11:34:00,66.9,55.6,29.83,NNW,328,6.0,6.0,67,0.00,,,0.00,278,Wunderground v.1.15,2013-06-01 01:34:00,
2013-06-01 11:36:00,66.1,54.8,29.83,NW,315,6.0,-999.0,67,0.00,,,0.03,308,Wunderground v.1.15,2013-06-01 01:36:00,
2013-06-01 11:41:00,66.1,54.8,29.83,NW,315,6.0,-999.0,67,0.00,,,0.03,308,Wunderground v.1.15,2013-06-01 01:41:00,
2013-06-01 11:46:00,66.6,55.7,29.82,NW,315,7.0,-999.0,68,0.00,,,0.03,248,Wunderground v.1.15,2013-06-01 01:46:00,
2013-06-01 11:51:00,66.6,55.7,29.82,NW,315,7.0,-999.0,68,0.00,,,0.03,248,Wunderground v.1.15,2013-06-01 01:51:00,
2013-06-01 11:56:00,66.6,55.7,29.82,NW,315,7.0,-999.0,68,0.00,,,0.03,248,Wunderground v.1.15,2013-06-01 01:56:00,
2013-06-01 12:01:00,66.6,55.7,29.82,NW,315,7.0,-999.0,68,0.00,,,0.03,248,Wunderground v.1.15,2013-06-01 02:01:00,
2013-06-01 12:06:00,66.6,55.7,29.82,NW,315,7.0,-999.0,68,0.00,,,0.03,248,Wunderground v.1.15,2013-06-01 02:06:00,
2013-06-01 12:11:00,66.6,55.7,29.82,NW,315,7.0,-999.0,68,0.00,,,0.03,248,Wunderground v.1.15,2013-06-01 02:11:00,
2013-06-01 12:16:00,66.5,55.6,29.80,WNW,293,8.0,-999.0,68,0.00,,,0.03,240,Wunderground v.1.15,2013-06-01 02:16:00,
2013-06-01 12:21:00,66.5,55.6,29.80,WNW,293,8.0,-999.0,68,0.00,,,0.03,240,Wunderground v.1.15,2013-06-01 02:21:00,
2013-06-01 12:26:00,66.5,55.6,29.80,WNW,293,8.0,-999.0,68,0.00,,,0.03,240,Wunderground v.1.15,2013-06-01 02:26:00,
2013-06-01 12:31:00,66.5,55.6,29.80,WNW,293,8.0,-999.0,68,0.00,,,0.03,240,Wunderground v.1.15,2013-06-01 02:31:00,
2013-06-01 12:36:00,66.5,55.6,29.80,WNW,293,8.0,-999.0,68,0.00,,,0.03,240,Wunderground v.1.15,2013-06-01 02:36:00,
2013-06-01 12:41:00,66.5,55.6,29.80,WNW,293,8.0,-999.0,68,0.00,,,0.03,240,Wunderground v.1.15,2013-06-01 02:41:00,
2013-06-01 12:46:00,67.3,55.5,29.77,NW,315,7.0,-999.0,66,0.00,,,0.03,264,Wunderground v.1.15,2013-06-01 02:46:00,
2013-06-01 12:51:00,67.3,55.5,29.77,NW,315,7.0,-999.0,66,0.00,,,0.03,264,Wunderground v.1.15,2013-06-01 02:51:00,
2013-06-01 12:56:00,67.3,55.5,29.77,NW,315,7.0,-999.0,66,0.00,,,0.03,264,Wunderground v.1.15,2013-06-01 02:56:00,
2013-06-01 13:01:00,67.3,55.5,29.77,NW,315,7.0,-999.0,66,0.00,,,0.03,264,Wunderground v.1.15,2013-06-01 03:01:00,
2013-06-01 13:06:00,67.3,55.5,29.77,NW,315,7.0,-999.0,66,0.00,,,0.03,264,Wunderground v.1.15,2013-06-01 03:06:00,
2013-06-01 13:11:00,67.3,55.5,29.77,NW,315,7.0,-999.0,66,0.00,,,0.03,264,Wunderground v.1.15,2013-06-01 03:11:00,
2013-06-01 13:16:00,68.3,56.5,29.74,NW,315,5.0,-999.0,66,0.00,,,0.03,258,Wunderground v.1.15,2013-06-01 03:16:00,
2013-06-01 13:21:00,68.3,56.5,29.74,NW,315,5.0,-999.0,66,0.00,,,0.03,258,Wunderground v.1.15,2013-06-01 03:21:00,
2013-06-01 13:26:00,68.3,56.5,29.74,NW,315,5.0,-999.0,66,0.00,,,0.03,258,Wunderground v.1.15,2013-06-01 03:26:00,
2013-06-01 13:31:00,68.3,56.5,29.74,NW,315,5.0,-999.0,66,0.00,,,0.03,258,Wunderground v.1.15,2013-06-01 03:31:00,
2013-06-01 13:36:00,68.3,56.5,29.74,NW,315,5.0,-999.0,66,0.00,,,0.03,258,Wunderground v.1.15,2013-06-01 03:36:00,
2013-06-01 13:41:00,68.3,56.5,29.74,NW,315,5.0,-999.0,66,0.00,,,0.03,258,Wunderground v.1.15,2013-06-01 03:41:00,
2013-06-01 13:46:00,68.9,56.6,29.72,NW,315,4.0,-999.0,65,0.00,,,0.03,207,Wunderground v.1.15,2013-06-01 03:46:00,
2013-06-01 13:51:00,68.9,56.6,29.72,NW,315,4.0,-999.0,65,0.00,,,0.03,207,Wunderground v.1.15,2013-06-01 03:51:00,
2013-06-01 13:56:00,68.9,56.6,29.72,NW,315,4.0,-999.0,65,0.00,,,0.03,207,Wunderground v.1.15,2013-06-01 03:56:00,
2013-06-01 14:01:00,68.9,56.6,29.72,NW,315,4.0,-999.0,65,0.00,,,0.03,207,Wunderground v.1.15,2013-06-01 04:01:00,
2013-06-01 14:06:00,68.9,56.6,29.72,NW,315,4.0,-999.0,65,0.00,,,0.03,207,Wunderground v.1.15,2013-06-01 04:06:00,
2013-06-01 14:11:00,68.9,56.6,29.72,NW,315,4.0,-999.0,65,0.00,,,0.03,207,Wunderground v.1.15,2013-06-01 04:11:00,
2013-06-01 14:16:00,67.9,56.5,29.72,NW,315,3.0,-999.0,67,0.00,,,0.03,70,Wunderground v.1.15,2013-06-01 04:16:00,
2013-06-01 14:21:00,67.9,56.5,29.72,NW,315,3.0,-999.0,67,0.00,,,0.03,70,Wunderground v.1.15,2013-06-01 04:21:00,
2013-06-01 14:26:00,67.9,56.5,29.72,NW,315,3.0,-999.0,67,0.00,,,0.03,70,Wunderground v.1.15,2013-06-01 04:26:00,
2013-06-01 14:31:00,67.9,56.5,29.72,NW,315,3.0,-999.0,67,0.00,,,0.03,70,Wunderground v.1.15,2013-06-01 04:31:00,
2013-06-01 14:36:00,67.9,56.5,29.72,NW,315,3.0,-999.0,67,0.00,,,0.03,70,Wunderground v.1.15,2013-06-01 04:36:00,
2013-06-01 14:41:00,67.9,56.5,29.72,NW,315,3.0,-999.0,67,0.00,,,0.03,70,Wunderground v.1.15,2013-06-01 04:41:00,
2013-06-01 14:46:00,67.0,56.1,29.73,NW,315,3.0,-999.0,68,0.00,,,0.03,36,Wunderground v.1.15,2013-06-01 04:46:00,
2013-06-01 14:51:00,67.0,56.1,29.73,NW,315,3.0,-999.0,68,0.00,,,0.03,36,Wunderground v.1.15,2013-06-01 04:51:00,
2013-06-01 14:56:00,67.0,56.1,29.73,NW,315,3.0,-999.0,68,0.00,,,0.03,36,Wunderground v.1.15,2013-06-01 04:56:00,
2013-06-01 15:01:00,67.0,56.1,29.73,NW,315,3.0,-999.0,68,0.00,,,0.03,36,Wunderground v.1.15,2013-06-01 05:01:00,
2013-06-01 15:06:00,67.0,56.1,29.73,NW,315,3.0,-999.0,68,0.00,,,0.03,36,Wunderground v.1.15,2013-06-01 05:06:00,
2013-06-01 15:11:00,67.0,56.1,29.73,NW,315,3.0,-999.0,68,0.00,,,0.03,36,Wunderground v.1.15,2013-06-01 05:11:00,
2013-06-01 15:16:00,66.5,56.4,29.73,North,0,1.0,-999.0,70,0.00,,,0.03,27,Wunderground v.1.15,2013-06-01 05:16:00,
2013-06-01 15:21:00,66.5,56.4,29.73,North,0,1.0,-999.0,70,0.00,,,0.03,27,Wunderground v.1.15,2013-06-01 05:21:00,
2013-06-01 15:26:00,66.5,56.4,29.73,North,0,1.0,-999.0,70,0.00,,,0.03,27,Wunderground v.1.15,2013-06-01 05:26:00,
2013-06-01 15:31:00,66.5,56.4,29.73,North,0,1.0,-999.0,70,0.00,,,0.03,27,Wunderground v.1.15,2013-06-01 05:31:00,
2013-06-01 15:36:00,66.5,56.4,29.73,North,0,1.0,-999.0,70,0.00,,,0.03,27,Wunderground v.1.15,2013-06-01 05:36:00,
2013-06-01 15:41:00,66.5,56.4,29.73,North,0,1.0,-999.0,70,0.00,,,0.03,27,Wunderground v.1.15,2013-06-01 05:41:00,
2013-06-01 15:46:00,65.9,57.0,29.73,NNE,23,1.0,-999.0,73,0.00,,,0.03,16,Wunderground v.1.15,2013-06-01 05:46:00,
2013-06-01 15:51:00,65.9,57.0,29.73,NNE,23,1.0,-999.0,73,0.00,,,0.03,16,Wunderground v.1.15,2013-06-01 05:51:00,
2013-06-01 15:56:00,65.9,57.0,29.73,NNE,23,1.0,-999.0,73,0.00,,,0.03,16,Wunderground v.1.15,2013-06-01 05:56:00,
2013-06-01 16:01:00,65.9,57.0,29.73,NNE,23,1.0,-999.0,73,0.00,,,0.03,16,Wunderground v.1.15,2013-06-01 06:01:00,
2013-06-01 16:06:00,65.9,57.0,29.73,NNE,23,1.0,-999.0,73,0.00,,,0.03,16,Wunderground v.1.15,2013-06-01 06:06:00,
2013-06-01 16:11:00,65.9,57.0,29.73,NNE,23,1.0,-999.0,73,0.00,,,0.03,16,Wunderground v.1.15,2013-06-01 06:11:00,
2013-06-01 16:16:00,65.4,57.3,29.73,NNE,23,1.0,-999.0,75,0.00,,,0.03,8,Wunderground v.1.15,2013-06-01 06:16:00,
2013-06-01 16:21:00,65.4,57.3,29.73,NNE,23,1.0,-999.0,75,0.00,,,0.03,8,Wunderground v.1.15,2013-06-01 06:21:00,
2013-06-01 16:26:00,65.4,57.3,29.73,NNE,23,1.0,-999.0,75,0.00,,,0.03,8,Wunderground v.1.15,2013-06-01 06:26:00,
2013-06-01 16:31:00,65.4,57.3,29.73,NNE,23,1.0,-999.0,75,0.00,,,0.03,8,Wunderground v.1.15,2013-06-01 06:31:00,
2013-06-01 16:36:00,65.4,57.3,29.73,NNE,23,1.0,-999.0,75,0.00,,,0.03,8,Wunderground v.1.15,2013-06-01 06:36:00,
2013-06-01 16:41:00,65.4,57.3,29.73,NNE,23,1.0,-999.0,75,0.00,,,0.03,8,Wunderground v.1.15,2013-06-01 06:41:00,
2013-06-01 16:46:00,64.5,58.2,29.74,NNE,23,2.0,-999.0,80,0.00,,,0.03,1,Wunderground v.1.15,2013-06-01 06:46:00,
2013-06-01 16:51:00,64.5,58.2,29.74,NNE,23,2.0,-999.0,80,0.00,,,0.03,1,Wunderground v.1.15,2013-06-01 06:51:00,
2013-06-01 16:56:00,64.5,58.2,29.74,NNE,23,2.0,-999.0,80,0.00,,,0.03,1,Wunderground v.1.15,2013-06-01 06:56:00,
2013-06-01 17:01:00,64.5,58.2,29.74,NNE,23,2.0,-999.0,80,0.00,,,0.03,1,Wunderground v.1.15,2013-06-01 07:01:00,
2013-06-01 17:06:00,64.5,58.2,29.74,NNE,23,2.0,-999.0,80,0.00,,,0.03,1,Wunderground v.1.15,2013-06-01 07:06:00,
2013-06-01 17:11:00,64.5,58.2,29.74,NNE,23,2.0,-999.0,80,0.00,,,0.03,1,Wunderground v.1.15,2013-06-01 07:11:00,
2013-06-01 17:16:00,63.1,58.2,29.73,NNE,23,2.0,-999.0,84,0.02,,,0.03,0,Wunderground v.1.15,2013-06-01 07:16:00,
2013-06-01 17:21:00,63.1,58.2,29.73,NNE,23,2.0,-999.0,84,0.02,,,0.03,0,Wunderground v.1.15,2013-06-01 07:21:00,
2013-06-01 17:26:00,63.1,58.2,29.73,NNE,23,2.0,-999.0,84,0.02,,,0.03,0,Wunderground v.1.15,2013-06-01 07:26:00,
2013-06-01 17:31:00,63.1,58.2,29.73,NNE,23,2.0,-999.0,84,0.02,,,0.03,0,Wunderground v.1.15,2013-06-01 07:31:00,
2013-06-01 17:36:00,63.1,58.2,29.73,NNE,23,2.0,-999.0,84,0.02,,,0.03,0,Wunderground v.1.15,2013-06-01 07:36:00,
2013-06-01 17:41:00,63.1,58.2,29.73,NNE,23,2.0,-999.0,84,0.02,,,0.03,0,Wunderground v.1.15,2013-06-01 07:41:00,
2013-06-01 17:46:00,62.3,57.4,29.73,North,0,3.0,-999.0,84,0.02,,,0.03,0,Wunderground v.1.15,2013-06-01 07:46:00,
2013-06-01 17:51:00,62.3,57.4,29.73,North,0,3.0,-999.0,84,0.02,,,0.03,0,Wunderground v.1.15,2013-06-01 07:51:00,
2013-06-01 17:56:00,62.3,57.4,29.73,North,0,3.0,-999.0,84,0.02,,,0.03,0,Wunderground v.1.15,2013-06-01 07:56:00,
2013-06-01 18:01:00,62.3,57.4,29.73,North,0,3.0,-999.0,84,0.02,,,0.03,0,Wunderground v.1.15,2013-06-01 08:01:00,
2013-06-01 18:06:00,62.3,57.4,29.73,North,0,3.0,-999.0,84,0.02,,,0.03,0,Wunderground v.1.15,2013-06-01 08:06:00,
2013-06-01 18:11:00,62.3,57.4,29.73,North,0,3.0,-999.0,84,0.02,,,0.03,0,Wunderground v.1.15,2013-06-01 08:11:00,
2013-06-01 18:16:00,61.6,57.4,29.73,North,0,3.0,-999.0,86,0.00,,,0.03,0,Wunderground v.1.15,2013-06-01 08:16:00,
2013-06-01 18:21:00,61.6,57.4,29.73,North,0,3.0,-999.0,86,0.00,,,0.03,0,Wunderground v.1.15,2013-06-01 08:21:00,
2013-06-01 18:26:00,61.6,57.4,29.73,North,0,3.0,-999.0,86,0.00,,,0.03,0,Wunderground v.1.15,2013-06-01 08:26:00,
2013-06-01 18:31:00,61.6,57.4,29.73,North,0,3.0,-999.0,86,0.00,,,0.03,0,Wunderground v.1.15,2013-06-01 08:31:00,
2013-06-01 18:36:00,61.6,57.4,29.73,North,0,3.0,-999.0,86,0.00,,,0.03,0,Wunderground v.1.15,2013-06-01 08:36:00,
2013-06-01 18:41:00,61.6,57.4,29.73,North,0,3.0,-999.0,86,0.00,,,0.03,0,Wunderground v.1.15,2013-06-01 08:41:00,
2013-06-01 18:46:00,61.0,57.1,29.73,North,0,3.0,-999.0,87,0.01,,,0.03,0,Wunderground v.1.15,2013-06-01 08:46:00,
2013-06-01 18:51:00,61.0,57.1,29.73,North,0,3.0,-999.0,87,0.01,,,0.03,0,Wunderground v.1.15,2013-06-01 08:51:00,
2013-06-01 18:56:00,61.0,57.1,29.73,North,0,3.0,-999.0,87,0.01,,,0.03,0,Wunderground v.1.15,2013-06-01 08:56:00,
2013-06-01 19:01:00,61.0,57.1,29.73,North,0,3.0,-999.0,87,0.01,,,0.03,0,Wunderground v.1.15,2013-06-01 09:01:00,
2013-06-01 19:06:00,61.0,57.1,29.73,North,0,3.0,-999.0,87,0.01,,,0.03,0,Wunderground v.1.15,2013-06-01 09:06:00,
2013-06-01 19:11:00,61.0,57.1,29.73,North,0,3.0,-999.0,87,0.01,,,0.03,0,Wunderground v.1.15,2013-06-01 09:11:00,
2013-06-01 19:16:00,60.3,56.7,29.72,North,0,2.0,-999.0,88,0.01,,,0.03,0,Wunderground v.1.15,2013-06-01 09:16:00,
2013-06-01 19:21:00,60.3,56.7,29.72,North,0,2.0,-999.0,88,0.01,,,0.03,0,Wunderground v.1.15,2013-06-01 09:21:00,
2013-06-01 19:26:00,60.3,56.7,29.72,North,0,2.0,-999.0,88,0.01,,,0.03,0,Wunderground v.1.15,2013-06-01 09:26:00,
2013-06-01 19:31:00,60.3,56.7,29.72,North,0,2.0,-999.0,88,0.01,,,0.03,0,Wunderground v.1.15,2013-06-01 09:31:00,
2013-06-01 19:36:00,60.3,56.7,29.72,North,0,2.0,-999.0,88,0.01,,,0.03,0,Wunderground v.1.15,2013-06-01 09:36:00,
2013-06-01 19:41:00,60.3,56.7,29.72,North,0,2.0,-999.0,88,0.01,,,0.03,0,Wunderground v.1.15,2013-06-01 09:41:00,
2013-06-01 19:46:00,60.4,55.9,29.71,North,0,2.0,-999.0,85,0.00,,,0.03,0,Wunderground v.1.15,2013-06-01 09:46:00,
2013-06-01 19:51:00,60.4,55.9,29.71,North,0,2.0,-999.0,85,0.00,,,0.03,0,Wunderground v.1.15,2013-06-01 09:51:00,
2013-06-01 19:56:00,60.4,55.9,29.71,North,0,2.0,-999.0,85,0.00,,,0.03,0,Wunderground v.1.15,2013-06-01 09:56:00,
2013-06-01 20:01:00,60.4,55.9,29.71,North,0,2.0,-999.0,85,0.00,,,0.03,0,Wunderground v.1.15,2013-06-01 10:01:00,
2013-06-01 20:06:00,60.4,55.9,29.71,North,0,2.0,-999.0,85,0.00,,,0.03,0,Wunderground v.1.15,2013-06-01 10:06:00,
2013-06-01 20:11:00,60.4,55.9,29.71,North,0,2.0,-999.0,85,0.00,,,0.03,0,Wunderground v.1.15,2013-06-01 10:11:00,
2013-06-01 20:16:00,60.6,56.4,29.71,North,0,1.0,-999.0,86,0.00,,,0.03,0,Wunderground v.1.15,2013-06-01 10:16:00,
2013-06-01 20:21:00,60.6,56.4,29.71,North,0,1.0,-999.0,86,0.00,,,0.03,0,Wunderground v.1.15,2013-06-01 10:21:00,
2013-06-01 20:26:00,60.6,56.4,29.71,North,0,1.0,-999.0,86,0.00,,,0.03,0,Wunderground v.1.15,2013-06-01 10:26:00,
2013-06-01 20:31:00,60.6,56.4,29.71,North,0,1.0,-999.0,86,0.00,,,0.03,0,Wunderground v.1.15,2013-06-01 10:31:00,
2013-06-01 20:36:00,60.6,56.4,29.71,North,0,1.0,-999.0,86,0.00,,,0.03,0,Wunderground v.1.15,2013-06-01 10:36:00,
2013-06-01 20:41:00,60.6,56.4,29.71,North,0,1.0,-999.0,86,0.00,,,0.03,0,Wunderground v.1.15,2013-06-01 10:41:00,
2013-06-01 20:46:00,60.2,56.9,29.70,NNE,23,1.0,-999.0,89,0.01,,,0.03,0,Wunderground v.1.15,2013-06-01 10:46:00,
2013-06-01 20:51:00,60.2,56.9,29.70,NNE,23,1.0,-999.0,89,0.01,,,0.03,0,Wunderground v.1.15,2013-06-01 10:51:00,
2013-06-01 20:56:00,60.2,56.9,29.70,NNE,23,1.0,-999.0,89,0.01,,,0.03,0,Wunderground v.1.15,2013-06-01 10:56:00,
2013-06-01 21:01:00,60.2,56.9,29.70,NNE,23,1.0,-999.0,89,0.01,,,0.03,0,Wunderground v.1.15,2013-06-01 11:01:00,
2013-06-01 21:06:00,60.2,56.9,29.70,NNE,23,1.0,-999.0,89,0.01,,,0.03,0,Wunderground v.1.15,2013-06-01 11:06:00,
2013-06-01 21:11:00,60.2,56.9,29.70,NNE,23,1.0,-999.0,89,0.01,,,0.03,0,Wunderground v.1.15,2013-06-01 11:11:00,
2013-06-01 21:16:00,60.1,57.2,29.70,NNE,23,2.0,-999.0,90,0.01,,,0.03,0,Wunderground v.1.15,2013-06-01 11:16:00,
2013-06-01 21:21:00,60.1,57.2,29.70,NNE,23,2.0,-999.0,90,0.01,,,0.03,0,Wunderground v.1.15,2013-06-01 11:21:00,
2013-06-01 21:26:00,60.1,57.2,29.70,NNE,23,2.0,-999.0,90,0.01,,,0.03,0,Wunderground v.1.15,2013-06-01 11:26:00,
2013-06-01 21:31:00,60.1,57.2,29.70,NNE,23,2.0,-999.0,90,0.01,,,0.03,0,Wunderground v.1.15,2013-06-01 11:31:00,
2013-06-01 21:36:00,60.1,57.2,29.70,NNE,23,2.0,-999.0,90,0.01,,,0.03,0,Wunderground v.1.15,2013-06-01 11:36:00,
2013-06-01 21:41:00,60.1,57.2,29.70,NNE,23,2.0,-999.0,90,0.01,,,0.03,0,Wunderground v.1.15,2013-06-01 11:41:00,
2013-06-01 21:46:00,59.9,57.3,29.67,NNE,23,1.0,-999.0,91,0.00,,,0.03,0,Wunderground v.1.15,2013-06-01 11:46:00,
2013-06-01 21:51:00,59.9,57.3,29.67,NNE,23,1.0,-999.0,91,0.00,,,0.03,0,Wunderground v.1.15,2013-06-01 11:51:00,
2013-06-01 21:56:00,59.9,57.3,29.67,NNE,23,1.0,-999.0,91,0.00,,,0.03,0,Wunderground v.1.15,2013-06-01 11:56:00,
2013-06-01 22:01:00,59.9,57.3,29.67,NNE,23,1.0,-999.0,91,0.00,,,0.03,0,Wunderground v.1.15,2013-06-01 12:01:00,
2013-06-01 22:06:00,59.9,57.3,29.67,NNE,23,1.0,-999.0,91,0.00,,,0.03,0,Wunderground v.1.15,2013-06-01 12:06:00,
2013-06-01 22:11:00,59.9,57.3,29.67,NNE,23,1.0,-999.0,91,0.00,,,0.03,0,Wunderground v.1.15,2013-06-01 12:11:00,
2013-06-01 22:16:00,59.9,57.6,29.66,NNE,23,2.0,-999.0,92,0.00,,,0.03,0,Wunderground v.1.15,2013-06-01 12:16:00,
2013-06-01 22:21:00,59.9,57.6,29.66,NNE,23,2.0,-999.0,92,0.00,,,0.03,0,Wunderground v.1.15,2013-06-01 12:21:00,
2013-06-01 22:26:00,59.9,57.6,29.66,NNE,23,2.0,-999.0,92,0.00,,,0.03,0,Wunderground v.1.15,2013-06-01 12:26:00,
2013-06-01 22:31:00,59.9,57.6,29.66,NNE,23,2.0,-999.0,92,0.00,,,0.03,0,Wunderground v.1.15,2013-06-01 12:31:00,
2013-06-01 22:36:00,59.9,57.6,29.66,NNE,23,2.0,-999.0,92,0.00,,,0.03,0,Wunderground v.1.15,2013-06-01 12:36:00,
2013-06-01 22:41:00,59.9,57.6,29.66,NNE,23,2.0,-999.0,92,0.00,,,0.03,0,Wunderground v.1.15,2013-06-01 12:41:00,
2013-06-01 22:46:00,59.6,57.3,29.66,NNE,23,2.0,-999.0,92,0.00,,,0.03,0,Wunderground v.1.15,2013-06-01 12:46:00,
2013-06-01 22:51:00,59.6,57.3,29.66,NNE,23,2.0,-999.0,92,0.00,,,0.03,0,Wunderground v.1.15,2013-06-01 12:51:00,
2013-06-01 22:56:00,59.6,57.3,29.66,NNE,23,2.0,-999.0,92,0.00,,,0.03,0,Wunderground v.1.15,2013-06-01 12:56:00,
2013-06-01 23:01:00,59.6,57.3,29.66,NNE,23,2.0,-999.0,92,0.00,,,0.03,0,Wunderground v.1.15,2013-06-01 13:01:00,
2013-06-01 23:06:00,59.6,57.3,29.66,NNE,23,2.0,-999.0,92,0.00,,,0.03,0,Wunderground v.1.15,2013-06-01 13:06:00,
2013-06-01 23:11:00,59.6,57.3,29.66,NNE,23,2.0,-999.0,92,0.00,,,0.03,0,Wunderground v.1.15,2013-06-01 13:11:00,
2013-06-01 23:16:00,59.3,57.3,29.64,NNE,23,2.0,-999.0,93,0.00,,,0.03,0,Wunderground v.1.15,2013-06-01 13:16:00,
2013-06-01 23:21:00,59.3,57.3,29.64,NNE,23,2.0,-999.0,93,0.00,,,0.03,0,Wunderground v.1.15,2013-06-01 13:21:00,
2013-06-01 23:26:00,59.3,57.3,29.64,NNE,23,2.0,-999.0,93,0.00,,,0.03,0,Wunderground v.1.15,2013-06-01 13:26:00,
2013-06-01 23:31:00,59.3,57.3,29.64,NNE,23,2.0,-999.0,93,0.00,,,0.03,0,Wunderground v.1.15,2013-06-01 13:31:00,
2013-06-01 23:36:00,59.3,57.3,29.64,NNE,23,2.0,-999.0,93,0.00,,,0.03,0,Wunderground v.1.15,2013-06-01 13:36:00,
2013-06-01 23:41:00,59.3,57.3,29.64,NNE,23,2.0,-999.0,93,0.00,,,0.03,0,Wunderground v.1.15,2013-06-01 13:41:00,
2013-06-01 23:46:00,58.6,56.0,29.63,North,0,3.0,-999.0,91,0.00,,,0.03,0,Wunderground v.1.15,2013-06-01 13:46:00,
2013-06-01 23:51:00,58.6,56.0,29.63,North,0,3.0,-999.0,91,0.00,,,0.03,0,Wunderground v.1.15,2013-06-01 13:51:00,
2013-06-01 23:56:00,58.6,56.0,29.63,North,0,3.0,-999.0,91,0.00,,,0.03,0,Wunderground v.1.15,2013-06-01 13:56:00,